X  Close Metar Aviation Weather Data     KBFL Meadows Field
Temperature
9°C Temperature
7°C Dewpoint
87% Humidity



Wind
0 KM/H
0 MPH
0 M/S
0 KTS



Calm
N
Current Conditions

Clear Clear
Pressure 1018.96 (hPa) - 30.09 (inHg)
Visibility 7 (mile) - 11.3 (km)
Airport
Airport-code KBFL

Location: Meadows Field
Distance: 7 (km)

Metar:
KBFL 240854Z 00000KT 7SM CLR 09/07 A3009 RMK AO2 SLP186 T00890072 55005

Time: 24-02-2024 8:54 am PST